createdAt,value
2018-05-18T00:01:59.988Z,13.00
2018-05-18T00:04:27.719Z,11.07
2018-05-18T00:06:55.222Z,12.63
2018-05-18T00:09:22.758Z,11.57
2018-05-18T00:11:50.267Z,11.63
2018-05-18T00:14:17.810Z,12.40
2018-05-18T00:16:46.078Z,12.90
2018-05-18T00:19:14.347Z,12.00
2018-05-18T00:21:41.926Z,12.40
2018-05-18T00:24:09.422Z,13.67
2018-05-18T00:26:36.965Z,13.40
2018-05-18T00:29:04.466Z,12.30
2018-05-18T00:31:31.999Z,12.50
2018-05-18T00:33:59.492Z,12.17
2018-05-18T00:36:27.026Z,12.97
2018-05-18T00:38:54.539Z,12.77
2018-05-18T00:41:22.073Z,12.83
2018-05-18T00:43:49.567Z,11.50
2018-05-18T00:46:17.167Z,14.40
2018-05-18T00:48:45.546Z,12.97
2018-05-18T00:51:13.090Z,13.37
2018-05-18T00:53:40.587Z,12.07
2018-05-18T00:56:08.125Z,11.80
2018-05-18T00:58:35.623Z,15.43
2018-05-18T01:01:03.167Z,12.57
2018-05-18T01:03:30.659Z,14.30
2018-05-18T01:05:58.927Z,15.13
2018-05-18T01:08:27.238Z,14.57
2018-05-18T01:10:54.770Z,14.33
2018-05-18T01:13:22.315Z,14.77
2018-05-18T01:15:50.598Z,14.23
2018-05-18T01:18:18.878Z,14.17
2018-05-18T01:20:47.134Z,14.27
2018-05-18T01:23:14.667Z,11.90
2018-05-18T01:25:42.179Z,16.50
2018-05-18T01:28:09.714Z,14.80
2018-05-18T01:30:37.991Z,15.50
2018-05-18T01:33:06.287Z,16.33
2018-05-18T01:35:33.782Z,15.60
2018-05-18T01:38:01.325Z,16.30
2018-05-18T01:40:28.819Z,15.70
2018-05-18T01:42:56.371Z,16.00
2018-05-18T01:45:23.887Z,16.50
2018-05-18T01:47:51.399Z,16.63
2018-05-18T01:50:18.947Z,16.50
2018-05-18T01:52:46.447Z,17.30
2018-05-18T01:55:13.987Z,16.80
2018-05-18T01:57:41.488Z,16.83
2018-05-18T02:00:09.035Z,16.47
2018-05-18T02:02:36.538Z,15.67
2018-05-18T02:05:04.075Z,18.80
2018-05-18T02:07:31.570Z,18.87
2018-05-18T02:10:00.674Z,18.00
2018-05-18T02:12:28.177Z,17.97
2018-05-18T02:14:55.707Z,17.77
2018-05-18T02:17:23.990Z,16.43
2018-05-18T02:19:52.624Z,18.37
2018-05-18T02:22:20.144Z,16.90
2018-05-18T02:24:47.701Z,18.27
2018-05-18T02:27:15.347Z,17.40
2018-05-18T02:29:42.850Z,17.80
2018-05-18T02:32:10.382Z,16.83
2018-05-18T02:34:37.879Z,17.40
2018-05-18T02:37:05.421Z,19.40
2018-05-18T02:39:32.919Z,17.27
2018-05-18T02:42:00.452Z,17.30
2018-05-18T02:44:27.962Z,19.60
2018-05-18T02:46:55.532Z,16.67
2018-05-18T02:49:23.081Z,18.93
2018-05-18T02:51:50.643Z,17.30
2018-05-18T02:54:18.927Z,17.80
2018-05-18T02:56:47.230Z,18.20
2018-05-18T02:59:14.859Z,18.03
2018-05-18T03:01:43.142Z,17.77
2018-05-18T03:04:10.712Z,17.73
2018-05-18T03:06:38.211Z,19.40
2018-05-18T03:09:05.762Z,18.10
2018-05-18T03:11:33.342Z,19.43
2018-05-18T03:14:00.953Z,20.33
2018-05-18T03:16:28.535Z,18.27
2018-05-18T03:18:56.108Z,20.57
2018-05-18T03:21:23.627Z,21.00
2018-05-18T03:23:51.171Z,23.10
2018-05-18T03:26:18.672Z,21.43
2018-05-18T03:28:46.211Z,25.33
2018-05-18T03:31:16.356Z,21.10
2018-05-18T03:33:43.932Z,20.70
2018-05-18T03:36:11.439Z,20.63
2018-05-18T03:38:38.981Z,21.90
2018-05-18T03:41:06.487Z,20.73
2018-05-18T03:43:34.019Z,22.53
2018-05-18T03:46:01.582Z,21.37
2018-05-18T03:48:29.128Z,22.40
2018-05-18T03:50:56.665Z,22.57
2018-05-18T03:53:24.159Z,21.00
2018-05-18T03:55:51.743Z,21.40
2018-05-18T03:58:19.258Z,23.33
2018-05-18T04:00:46.795Z,21.77
2018-05-18T04:03:25.980Z,21.70
2018-05-18T04:06:05.594Z,23.23
2018-05-18T04:08:48.928Z,22.50
2018-05-18T04:11:16.689Z,24.03
2018-05-18T04:13:44.197Z,23.10
2018-05-18T04:16:11.691Z,24.00
2018-05-18T04:18:40.021Z,24.23
2018-05-18T04:21:07.531Z,21.87
2018-05-18T04:23:35.088Z,23.87
2018-05-18T04:26:03.354Z,23.63
2018-05-18T04:28:31.752Z,22.53
2018-05-18T04:30:59.258Z,21.63
2018-05-18T04:33:26.809Z,23.20
2018-05-18T04:35:54.424Z,21.33
2018-05-18T04:38:22.682Z,22.77
2018-05-18T04:40:50.217Z,23.00
2018-05-18T04:43:17.806Z,24.13
2018-05-18T04:45:45.262Z,21.17
2018-05-18T04:48:13.533Z,22.33
2018-05-18T04:50:42.147Z,22.40
2018-05-18T04:53:09.650Z,22.37
2018-05-18T04:55:37.151Z,25.50
2018-05-18T04:58:05.446Z,22.90
2018-05-18T05:00:32.950Z,23.40
2018-05-18T05:03:00.482Z,21.77
2018-05-18T05:05:28.097Z,20.70
2018-05-18T05:07:55.629Z,20.93
2018-05-18T05:10:23.130Z,22.63
2018-05-18T05:12:51.430Z,23.60
2018-05-18T05:15:18.922Z,22.00
2018-05-18T05:17:46.452Z,21.90
2018-05-18T05:20:13.955Z,24.60
2018-05-18T05:22:41.483Z,22.13
2018-05-18T05:25:09.001Z,20.93
2018-05-18T05:27:36.539Z,22.40
2018-05-18T05:30:04.807Z,23.00
2018-05-18T05:32:32.354Z,21.90
2018-05-18T05:35:00.634Z,20.87
2018-05-18T05:37:29.674Z,22.50
2018-05-18T05:39:57.174Z,21.87
2018-05-18T05:42:24.719Z,21.33
2018-05-18T05:44:52.232Z,21.77
2018-05-18T05:47:20.540Z,20.00
2018-05-18T05:49:48.039Z,20.50
2018-05-18T05:52:16.342Z,21.13
2018-05-18T05:54:43.834Z,19.27
2018-05-18T05:57:11.366Z,18.73
2018-05-18T05:59:39.631Z,19.17
2018-05-18T06:02:08.130Z,19.83
2018-05-18T06:04:35.850Z,18.33
2018-05-18T06:07:03.388Z,18.90
2018-05-18T06:09:30.881Z,20.10
2018-05-18T06:11:58.408Z,9.43
2018-05-18T06:14:25.913Z,18.57
2018-05-18T06:16:53.438Z,19.50
2018-05-18T06:19:20.934Z,18.73
2018-05-18T06:21:49.235Z,19.20
2018-05-18T06:24:16.742Z,18.43
2018-05-18T06:26:44.283Z,20.60
2018-05-18T06:29:11.783Z,17.30
2018-05-18T06:31:40.081Z,17.30
2018-05-18T06:34:07.576Z,15.87
2018-05-18T06:36:35.108Z,16.70
2018-05-18T06:39:02.607Z,15.27
2018-05-18T06:41:30.150Z,15.00
2018-05-18T06:43:57.666Z,14.20
2018-05-18T06:46:25.220Z,15.40
2018-05-18T06:48:53.617Z,15.27
2018-05-18T06:51:21.156Z,16.60
2018-05-18T06:53:49.428Z,15.27
2018-05-18T06:56:17.735Z,14.63
2018-05-18T06:58:45.250Z,13.40
2018-05-18T07:01:12.785Z,15.90
2018-05-18T07:03:40.283Z,14.93
2018-05-18T07:06:08.064Z,15.10
2018-05-18T07:08:35.567Z,16.50
2018-05-18T07:11:03.098Z,17.17
2018-05-18T07:13:30.594Z,16.80
2018-05-18T07:15:58.102Z,16.80
2018-05-18T07:18:25.940Z,17.67
2018-05-18T07:20:53.448Z,14.40
2018-05-18T07:23:20.991Z,16.53
2018-05-18T07:25:48.491Z,16.10
2018-05-18T07:28:16.032Z,15.10
2018-05-18T07:30:43.531Z,16.50
2018-05-18T07:33:11.847Z,15.00
2018-05-18T07:35:39.352Z,14.73
2018-05-18T07:38:07.645Z,11.70
2018-05-18T07:40:35.186Z,14.20
2018-05-18T07:43:02.724Z,13.60
2018-05-18T07:45:30.223Z,12.53
2018-05-18T07:47:57.896Z,13.57
2018-05-18T07:50:25.411Z,12.70
2018-05-18T07:52:52.914Z,13.50
2018-05-18T07:55:20.451Z,14.83
2018-05-18T07:57:47.955Z,12.50
2018-05-18T08:00:15.508Z,13.17
2018-05-18T08:02:43.008Z,13.20
2018-05-18T08:05:10.546Z,13.17
2018-05-18T08:07:38.051Z,12.70
2018-05-18T08:10:06.363Z,13.97
2018-05-18T08:12:33.869Z,12.80
2018-05-18T08:15:01.456Z,13.83
2018-05-18T08:17:29.724Z,12.70
2018-05-18T08:19:58.064Z,14.17
2018-05-18T08:22:25.611Z,13.17
2018-05-18T08:24:53.137Z,12.60
2018-05-18T08:27:23.493Z,14.07
2018-05-18T08:29:50.999Z,12.10
2018-05-18T08:32:18.547Z,13.33
2018-05-18T08:34:46.834Z,13.47
2018-05-18T08:37:15.136Z,8.97
2018-05-18T08:39:42.649Z,12.43
2018-05-18T08:42:10.213Z,10.80
2018-05-18T08:44:37.722Z,11.37
2018-05-18T08:47:05.272Z,11.80
2018-05-18T08:49:32.823Z,12.50
2018-05-18T08:52:00.333Z,12.17
2018-05-18T08:54:27.892Z,11.60
2018-05-18T08:56:55.431Z,13.33
2018-05-18T08:59:22.940Z,13.63
2018-05-18T09:01:50.511Z,14.60
2018-05-18T09:04:18.034Z,14.30
2018-05-18T09:06:45.553Z,12.50
2018-05-18T09:09:13.124Z,13.67
2018-05-18T09:11:40.628Z,11.30
2018-05-18T09:14:08.164Z,15.23
2018-05-18T09:16:35.686Z,13.30
2018-05-18T09:19:03.234Z,15.83
2018-05-18T09:21:30.752Z,14.00
2018-05-18T09:23:58.291Z,15.43
2018-05-18T09:26:25.830Z,16.90
2018-05-18T09:28:53.413Z,13.40
2018-05-18T09:31:20.918Z,14.63
2018-05-18T09:33:49.227Z,15.13
2018-05-18T09:36:16.776Z,17.03
2018-05-18T09:38:44.337Z,14.47
2018-05-18T09:41:11.847Z,18.10
2018-05-18T09:43:39.398Z,17.00
2018-05-18T09:46:06.909Z,19.37
2018-05-18T09:48:34.484Z,18.80
2018-05-18T09:51:01.995Z,18.90
2018-05-18T09:53:30.264Z,18.20
2018-05-18T09:55:57.810Z,21.30
2018-05-18T09:58:25.327Z,23.20
2018-05-18T10:00:52.880Z,24.87
2018-05-18T10:03:20.389Z,21.17
2018-05-18T10:05:47.941Z,16.57
2018-05-18T10:08:15.473Z,21.33
2018-05-18T10:10:43.023Z,20.47
2018-05-18T10:13:10.528Z,19.70
2018-05-18T10:15:38.063Z,20.80
2018-05-18T10:18:05.572Z,19.63
2018-05-18T10:20:33.135Z,18.63
2018-05-18T10:23:00.647Z,18.17
2018-05-18T10:25:28.139Z,19.70
2018-05-18T10:27:55.831Z,19.33
2018-05-18T10:30:30.180Z,20.10
2018-05-18T10:32:57.683Z,17.03
2018-05-18T10:35:25.186Z,19.53
2018-05-18T10:37:52.737Z,8.73
2018-05-18T10:40:20.243Z,18.77
2018-05-18T10:42:47.946Z,21.97
2018-05-18T10:45:15.526Z,21.33
2018-05-18T10:47:43.049Z,21.23
2018-05-18T10:50:10.561Z,20.97
2018-05-18T10:52:38.103Z,20.90
2018-05-18T10:55:05.611Z,19.53
2018-05-18T10:57:33.147Z,11.80
2018-05-18T11:00:00.659Z,22.03
2018-05-18T11:02:28.204Z,22.87
2018-05-18T11:04:55.702Z,20.53
2018-05-18T11:07:23.255Z,22.50
2018-05-18T11:09:50.772Z,21.30
2018-05-18T11:12:18.319Z,12.60
2018-05-18T11:14:46.592Z,23.50
2018-05-18T11:17:14.906Z,21.50
2018-05-18T11:19:42.402Z,19.70
2018-05-18T11:22:09.963Z,20.67
2018-05-18T11:24:37.466Z,23.07
2018-05-18T11:27:04.973Z,22.00
2018-05-18T11:29:32.534Z,23.20
2018-05-18T11:32:00.100Z,22.10
2018-05-18T11:34:27.594Z,18.87
2018-05-18T11:36:56.084Z,22.73
2018-05-18T11:39:23.622Z,22.47
2018-05-18T11:41:51.130Z,21.53
2018-05-18T11:44:18.673Z,23.60
2018-05-18T11:46:46.209Z,22.97
2018-05-18T11:49:14.523Z,21.43
2018-05-18T11:51:42.028Z,26.23
2018-05-18T11:54:09.579Z,25.23
2018-05-18T11:56:37.073Z,23.63
2018-05-18T11:59:04.606Z,27.57
2018-05-18T12:01:32.116Z,22.60
2018-05-18T12:03:59.970Z,29.17
2018-05-18T12:06:27.494Z,28.13
2018-05-18T12:08:55.831Z,32.07
2018-05-18T12:11:23.331Z,30.17
2018-05-18T12:13:50.834Z,29.80
2018-05-18T12:16:18.364Z,35.33
2018-05-18T12:18:45.865Z,31.50
2018-05-18T12:21:13.397Z,34.37
2018-05-18T12:23:40.898Z,35.97
2018-05-18T12:26:08.538Z,35.40
2018-05-18T12:28:36.003Z,34.00
2018-05-18T12:31:03.562Z,31.43
2018-05-18T12:33:31.074Z,38.33
2018-05-18T12:35:58.613Z,40.90
2018-05-18T12:38:26.983Z,39.53
2018-05-18T12:40:54.523Z,42.87
2018-05-18T12:43:22.027Z,43.07
2018-05-18T12:45:50.342Z,38.90
2018-05-18T12:48:17.849Z,40.57
2018-05-18T12:50:45.383Z,42.17
2018-05-18T12:53:13.002Z,42.60
2018-05-18T12:55:40.732Z,42.90
2018-05-18T12:58:09.147Z,36.70
2018-05-18T13:00:36.696Z,38.60
2018-05-18T13:03:04.212Z,39.13
2018-05-18T13:05:31.907Z,40.20
2018-05-18T13:07:59.439Z,41.10
2018-05-18T13:10:26.981Z,41.17
2018-05-18T13:12:54.497Z,42.77
2018-05-18T13:15:22.043Z,35.77
2018-05-18T13:17:49.555Z,36.50
2018-05-18T13:20:17.095Z,35.73
2018-05-18T13:22:44.602Z,35.20
2018-05-18T13:25:12.910Z,41.23
2018-05-18T13:27:40.417Z,39.57
2018-05-18T13:30:09.485Z,37.93
2018-05-18T13:32:36.992Z,32.90
2018-05-18T13:35:04.500Z,38.40
2018-05-18T13:37:32.035Z,34.17
2018-05-18T13:39:59.544Z,33.57
2018-05-18T13:42:27.096Z,35.13
2018-05-18T13:44:54.648Z,24.60
2018-05-18T13:47:22.154Z,31.50
2018-05-18T13:49:49.657Z,27.20
2018-05-18T13:52:17.194Z,30.73
2018-05-18T13:54:44.696Z,29.00
2018-05-18T13:57:12.317Z,30.40
2018-05-18T13:59:39.773Z,30.17
2018-05-18T14:02:07.338Z,26.83
2018-05-18T14:04:35.775Z,28.23
2018-05-18T14:07:03.441Z,31.00
2018-05-18T14:09:30.965Z,27.87
2018-05-18T14:11:58.612Z,26.80
2018-05-18T14:14:26.162Z,28.90
2018-05-18T14:16:53.742Z,27.90
2018-05-18T14:19:21.287Z,22.03
2018-05-18T14:21:48.791Z,26.77
2018-05-18T14:24:16.611Z,22.73
2018-05-18T14:26:44.123Z,19.90
2018-05-18T14:29:11.679Z,21.60
2018-05-18T14:31:39.954Z,19.23
2018-05-18T14:34:08.271Z,19.30
2018-05-18T14:36:35.774Z,18.80
2018-05-18T14:39:03.349Z,22.80
2018-05-18T14:41:30.841Z,20.77
2018-05-18T14:43:58.469Z,20.57
2018-05-18T14:46:25.899Z,19.20
2018-05-18T14:48:53.442Z,19.60
2018-05-18T14:51:20.980Z,19.30
2018-05-18T14:53:48.475Z,20.30
2018-05-18T14:56:15.992Z,22.63
2018-05-18T14:58:43.538Z,20.70
2018-05-18T15:01:11.031Z,18.37
2018-05-18T15:03:38.584Z,19.27
2018-05-18T15:06:06.076Z,20.80
2018-05-18T15:08:33.627Z,21.20
2018-05-18T15:11:01.160Z,21.40
2018-05-18T15:13:28.711Z,20.77
2018-05-18T15:15:56.213Z,17.93
2018-05-18T15:18:23.753Z,18.80
2018-05-18T15:20:51.254Z,20.17
2018-05-18T15:23:18.939Z,21.50
2018-05-18T15:25:46.430Z,20.57
2018-05-18T15:28:14.018Z,18.50
2018-05-18T15:30:41.558Z,18.70
2018-05-18T15:33:09.078Z,18.20
2018-05-18T15:35:36.642Z,18.47
2018-05-18T15:38:04.150Z,19.13
2018-05-18T15:40:31.702Z,20.43
2018-05-18T15:42:59.962Z,17.77
2018-05-18T15:45:27.497Z,15.33
2018-05-18T15:47:55.443Z,15.97
2018-05-18T15:50:22.992Z,16.03
2018-05-18T15:52:50.487Z,16.00
2018-05-18T15:55:18.017Z,14.83
2018-05-18T15:57:45.599Z,13.60
2018-05-18T16:00:13.147Z,14.90
2018-05-18T16:02:40.643Z,16.07
2018-05-18T16:05:08.188Z,12.20
2018-05-18T16:07:35.698Z,14.10
2018-05-18T16:10:04.175Z,14.93
2018-05-18T16:12:32.472Z,14.43
2018-05-18T16:15:00.005Z,14.50
2018-05-18T16:17:29.017Z,14.50
2018-05-18T16:19:57.338Z,15.57
2018-05-18T16:22:24.833Z,14.13
2018-05-18T16:24:52.383Z,12.10
2018-05-18T16:27:19.896Z,12.90
2018-05-18T16:29:47.458Z,15.20
2018-05-18T16:32:14.958Z,11.83
2018-05-18T16:34:42.469Z,15.37
2018-05-18T16:37:10.017Z,16.20
2018-05-18T16:39:37.532Z,15.70
2018-05-18T16:42:05.239Z,16.53
2018-05-18T16:44:32.746Z,16.60
2018-05-18T16:47:00.294Z,17.17
2018-05-18T16:49:27.838Z,17.90
2018-05-18T16:51:55.381Z,14.93
2018-05-18T16:54:22.887Z,17.20
2018-05-18T16:56:50.416Z,17.07
2018-05-18T16:59:17.910Z,13.33
2018-05-18T17:01:45.454Z,17.17
2018-05-18T17:04:12.959Z,17.37
2018-05-18T17:06:41.255Z,16.60
2018-05-18T17:09:08.763Z,13.90
2018-05-18T17:11:37.805Z,15.90
2018-05-18T17:14:05.456Z,14.43
2018-05-18T17:16:33.002Z,13.57
2018-05-18T17:19:00.502Z,15.20
2018-05-18T17:21:28.042Z,16.40
2018-05-18T17:23:55.540Z,15.30
2018-05-18T17:26:23.081Z,16.83
2018-05-18T17:28:50.667Z,15.87
2018-05-18T17:31:18.211Z,15.43
2018-05-18T17:33:45.718Z,16.20
2018-05-18T17:36:13.259Z,16.40
2018-05-18T17:38:40.769Z,17.10
2018-05-18T17:41:08.327Z,17.03
2018-05-18T17:43:35.838Z,17.50
2018-05-18T17:46:03.352Z,16.90
2018-05-18T17:48:30.887Z,15.07
2018-05-18T17:50:58.386Z,16.07
2018-05-18T17:53:25.929Z,14.53
2018-05-18T17:55:53.468Z,18.80
2018-05-18T17:58:20.971Z,16.67
2018-05-18T18:00:48.535Z,16.93
2018-05-18T18:03:16.040Z,17.00
2018-05-18T18:05:43.580Z,17.83
2018-05-18T18:08:11.082Z,14.60
2018-05-18T18:10:38.633Z,16.33
2018-05-18T18:13:06.144Z,16.27
2018-05-18T18:15:33.729Z,16.20
2018-05-18T18:18:01.235Z,15.83
2018-05-18T18:20:30.259Z,19.60
2018-05-18T18:22:58.592Z,15.33
2018-05-18T18:25:26.106Z,15.97
2018-05-18T18:27:53.667Z,15.83
2018-05-18T18:30:21.946Z,18.90
2018-05-18T18:32:49.499Z,17.57
2018-05-18T18:35:17.023Z,16.60
2018-05-18T18:37:44.558Z,18.47
2018-05-18T18:40:12.062Z,15.20
2018-05-18T18:42:39.659Z,16.37
2018-05-18T18:45:08.160Z,16.67
2018-05-18T18:47:35.749Z,15.50
2018-05-18T18:50:03.262Z,16.10
2018-05-18T18:52:30.811Z,15.67
2018-05-18T18:54:58.314Z,17.60
2018-05-18T18:57:25.860Z,15.47
2018-05-18T18:59:53.363Z,16.70
2018-05-18T19:02:20.965Z,17.07
2018-05-18T19:04:48.470Z,15.10
2018-05-18T19:07:16.006Z,16.87
2018-05-18T19:09:43.571Z,15.10
2018-05-18T19:12:11.094Z,17.23
2018-05-18T19:14:38.634Z,18.97
2018-05-18T19:17:06.161Z,15.70
2018-05-18T19:19:34.699Z,16.30
2018-05-18T19:22:02.207Z,15.73
2018-05-18T19:24:29.752Z,14.27
2018-05-18T19:26:57.267Z,15.40
2018-05-18T19:29:24.836Z,17.97
2018-05-18T19:31:52.356Z,17.30
2018-05-18T19:34:19.920Z,18.03
2018-05-18T19:36:48.209Z,17.90
2018-05-18T19:39:15.755Z,16.90
2018-05-18T19:41:43.284Z,18.70
2018-05-18T19:44:10.853Z,17.70
2018-05-18T19:46:38.411Z,17.20
2018-05-18T19:49:05.928Z,17.10
2018-05-18T19:51:33.486Z,18.27
2018-05-18T19:54:01.010Z,19.93
2018-05-18T19:56:29.323Z,20.50
2018-05-18T19:58:56.839Z,18.13
2018-05-18T20:01:24.427Z,18.63
2018-05-18T20:03:51.966Z,17.97
2018-05-18T20:06:19.505Z,18.60
2018-05-18T20:08:47.014Z,17.80
2018-05-18T20:11:15.373Z,15.40
2018-05-18T20:13:42.891Z,17.73
2018-05-18T20:16:10.435Z,19.00
2018-05-18T20:18:37.983Z,20.50
2018-05-18T20:21:05.529Z,24.00
2018-05-18T20:23:33.043Z,21.67
2018-05-18T20:26:00.628Z,22.80
2018-05-18T20:28:28.208Z,20.30
2018-05-18T20:30:55.853Z,16.63
2018-05-18T20:33:23.376Z,19.07
2018-05-18T20:35:50.892Z,17.77
2018-05-18T20:38:18.468Z,18.77
2018-05-18T20:40:46.008Z,18.37
2018-05-18T20:43:13.556Z,16.37
2018-05-18T20:45:41.104Z,17.50
2018-05-18T20:48:08.666Z,25.67
2018-05-18T20:50:36.170Z,16.30
2018-05-18T20:53:03.710Z,17.03
2018-05-18T20:55:31.239Z,18.03
2018-05-18T20:57:58.771Z,16.40
2018-05-18T21:00:27.100Z,16.90
2018-05-18T21:02:54.646Z,16.47
2018-05-18T21:05:22.172Z,15.30
2018-05-18T21:07:50.545Z,17.13
2018-05-18T21:10:18.072Z,15.43
2018-05-18T21:12:45.670Z,15.30
2018-05-18T21:15:13.290Z,15.70
2018-05-18T21:17:40.808Z,17.40
2018-05-18T21:20:08.360Z,16.57
2018-05-18T21:22:36.678Z,17.43
2018-05-18T21:25:04.239Z,17.80
2018-05-18T21:27:31.789Z,15.53
2018-05-18T21:29:59.569Z,18.10
2018-05-18T21:32:27.135Z,16.57
2018-05-18T21:34:55.487Z,17.30
2018-05-18T21:37:23.347Z,16.90
2018-05-18T21:39:50.946Z,16.90
2018-05-18T21:42:18.453Z,16.17
2018-05-18T21:44:46.065Z,16.07
2018-05-18T21:47:13.631Z,17.30
2018-05-18T21:49:41.223Z,16.73
2018-05-18T21:52:08.749Z,17.30
2018-05-18T21:54:37.074Z,17.53
2018-05-18T21:57:04.584Z,16.77
2018-05-18T21:59:32.180Z,16.03
2018-05-18T22:02:00.452Z,17.00
2018-05-18T22:04:29.611Z,16.40
2018-05-18T22:06:57.125Z,16.87
2018-05-18T22:09:24.651Z,15.70
2018-05-18T22:11:52.291Z,17.97
2018-05-18T22:14:19.792Z,16.47
2018-05-18T22:16:47.333Z,16.57
2018-05-18T22:19:14.915Z,15.23
2018-05-18T22:21:42.463Z,18.57
2018-05-18T22:24:09.978Z,18.47
2018-05-18T22:26:37.599Z,28.73
2018-05-18T22:29:05.115Z,29.67
2018-05-18T22:31:32.654Z,17.80
2018-05-18T22:34:00.166Z,17.60
2018-05-18T22:36:27.706Z,16.80
2018-05-18T22:38:55.967Z,16.67
2018-05-18T22:41:23.529Z,17.50
2018-05-18T22:43:51.798Z,16.93
2018-05-18T22:46:20.111Z,16.97
2018-05-18T22:48:47.619Z,17.23
2018-05-18T22:51:15.117Z,17.03
2018-05-18T22:53:44.044Z,16.50
2018-05-18T22:56:11.548Z,15.83
2018-05-18T22:58:39.078Z,17.87
2018-05-18T23:01:06.595Z,17.33
2018-05-18T23:03:34.938Z,20.00
2018-05-18T23:06:02.655Z,18.10
2018-05-18T23:08:30.186Z,18.33
2018-05-18T23:10:58.454Z,18.03
2018-05-18T23:13:26.757Z,17.43
2018-05-18T23:15:54.255Z,17.50
2018-05-18T23:18:21.794Z,18.03
2018-05-18T23:20:50.130Z,15.90
2018-05-18T23:23:18.444Z,15.50
2018-05-18T23:25:46.015Z,17.20
2018-05-18T23:28:13.496Z,17.30
2018-05-18T23:30:40.991Z,17.03
2018-05-18T23:33:08.539Z,17.07
2018-05-18T23:35:36.038Z,16.70
2018-05-18T23:38:03.578Z,16.87
2018-05-18T23:40:31.083Z,18.20
2018-05-18T23:42:58.625Z,17.47
2018-05-18T23:45:26.119Z,16.20
2018-05-18T23:47:54.511Z,16.60
2018-05-18T23:50:22.042Z,17.90
2018-05-18T23:52:49.547Z,16.80
2018-05-18T23:55:17.088Z,16.50
2018-05-18T23:57:44.635Z,16.47
